Time;durP1;ratioP1;P1;durP2;ratioP2;P2;SDS_P1;SDS_P2;PMS_P1;PMS_P2;Temp;Humidity;BMP_temperature;BMP_pressure;BME280_temperature;BME280_humidity;BME280_pressure;Samples;Min_cycle;Max_cycle;Signal;HPM_P1;HPM_P2
2022/08/31 00:06:14;;;;;;;0.65;0.65;;;;;;;16.73;75.97;101299.91;6214131;28;20041;-88
2022/08/31 00:09:16;;;;;;;0.90;0.75;;;;;;;16.73;76.65;101292.06;6209635;28;20046;-88
2022/08/31 00:12:18;;;;;;;1.08;0.75;;;;;;;16.71;77.04;101296.59;6226137;28;20654;-89
2022/08/31 00:15:22;;;;;;;1.60;0.80;;;;;;;16.70;74.41;101292.34;6216383;28;20583;-88
2022/08/31 00:18:26;;;;;;;0.75;0.70;;;;;;;16.69;76.40;101295.91;6205282;28;20237;-88
2022/08/31 00:21:28;;;;;;;1.38;0.82;;;;;;;16.67;76.38;101303.06;6205144;28;20053;-88
2022/08/31 00:24:31;;;;;;;1.95;0.80;;;;;;;16.68;76.34;101299.50;6203625;28;20040;-89
2022/08/31 00:27:32;;;;;;;3.72;0.80;;;;;;;16.66;76.03;101297.00;6205379;28;20500;-89
2022/08/31 00:30:34;;;;;;;1.02;0.70;;;;;;;16.66;75.99;101297.00;6205119;28;20045;-88
2022/08/31 00:33:36;;;;;;;1.70;0.73;;;;;;;16.65;78.34;101284.91;6222262;28;20108;-89
2022/08/31 00:36:38;;;;;;;1.17;0.80;;;;;;;16.65;77.34;101284.91;6220315;28;20045;-88
2022/08/31 00:39:40;;;;;;;2.22;0.80;;;;;;;16.64;78.00;101292.91;6211938;28;20042;-89
2022/08/31 00:42:42;;;;;;;1.10;0.70;;;;;;;16.61;76.52;101278.31;6208991;28;20049;-88
2022/08/31 00:45:44;;;;;;;1.17;0.88;;;;;;;16.64;74.42;101279.81;6208454;28;20037;-89
2022/08/31 00:49:04;;;;;;;1.60;0.80;;;;;;;16.60;77.35;101284.53;6216438;28;20462;-89
2022/08/31 00:52:23;;;;;;;0.70;0.65;;;;;;;16.60;75.25;101281.09;6220033;28;20068;-88
2022/08/31 00:55:34;;;;;;;2.55;0.85;;;;;;;16.56;76.88;101276.13;6209370;28;20466;-88
2022/08/31 00:58:36;;;;;;;1.75;0.80;;;;;;;16.54;75.71;101275.44;6209733;28;20445;-88
2022/08/31 01:01:38;;;;;;;1.85;1.10;;;;;;;16.53;78.25;101276.41;6225240;28;20762;-89
2022/08/31 01:04:39;;;;;;;1.35;1.00;;;;;;;16.51;76.32;101274.91;6219617;28;20078;-89
2022/08/31 01:07:46;;;;;;;2.50;1.00;;;;;;;16.51;76.48;101267.88;6208240;28;20046;-88
2022/08/31 01:10:48;;;;;;;1.58;0.80;;;;;;;16.52;75.33;101274.78;6202541;28;20057;-88
2022/08/31 01:13:55;;;;;;;2.75;0.68;;;;;;;16.47;77.15;101276.16;6198305;28;20071;-89
2022/08/31 01:16:57;;;;;;;1.02;0.80;;;;;;;16.43;77.22;101277.41;6215202;28;20153;-89
2022/08/31 01:20:34;;;;;;;0.90;0.60;;;;;;;16.42;77.60;101279.22;6209220;28;20123;-89
2022/08/31 01:23:41;;;;;;;0.68;0.68;;;;;;;16.43;76.53;101280.84;6133511;29;20059;-89
2022/08/31 01:26:43;;;;;;;1.20;0.80;;;;;;;16.38;78.09;101285.66;6120074;29;20047;-89
2022/08/31 01:30:09;;;;;;;3.20;1.00;;;;;;;16.33;78.21;101280.03;6117790;29;20055;-88
2022/08/31 01:33:11;;;;;;;0.68;0.60;;;;;;;16.30;79.12;101280.31;6132281;29;20186;-88
2022/08/31 01:36:14;;;;;;;0.95;0.75;;;;;;;16.28;77.97;101282.25;6117328;29;20051;-88
2022/08/31 01:39:17;;;;;;;1.02;0.60;;;;;;;16.23;80.64;101285.28;6117957;29;20246;-88
2022/08/31 01:42:19;;;;;;;1.85;0.80;;;;;;;16.23;78.62;101279.25;6113830;29;20043;-88
2022/08/31 01:45:21;;;;;;;1.50;0.70;;;;;;;16.18;80.62;101282.25;6124557;29;20536;-89
2022/08/31 01:48:23;;;;;;;1.38;0.63;;;;;;;16.12;82.49;101286.25;6117794;29;20477;-89
2022/08/31 01:51:25;;;;;;;2.00;0.80;;;;;;;16.10;82.42;101289.97;6107468;29;20215;-89
2022/08/31 01:54:27;;;;;;;1.20;0.80;;;;;;;16.03;82.46;101284.47;6109775;29;20243;-89
2022/08/31 01:57:29;;;;;;;0.60;0.57;;;;;;;15.97;81.65;101286.78;6114457;29;20418;-89
2022/08/31 02:00:53;;;;;;;0.70;0.65;;;;;;;15.89;82.57;101288.31;6186327;28;20061;-89
2022/08/31 02:03:55;;;;;;;0.65;0.65;;;;;;;15.85;83.56;101291.31;6200453;28;20459;-89
2022/08/31 02:07:00;;;;;;;1.42;0.70;;;;;;;15.80;84.89;101290.91;6204307;28;20069;-89
2022/08/31 02:10:03;;;;;;;0.70;0.70;;;;;;;15.74;85.40;101283.63;6209725;28;20168;-89
2022/08/31 02:13:05;;;;;;;2.17;0.80;;;;;;;15.66;86.13;101290.31;6213520;28;20057;-89
2022/08/31 02:16:10;;;;;;;3.28;0.70;;;;;;;15.60;86.72;101290.88;6199561;28;20051;-88
2022/08/31 02:19:12;;;;;;;1.88;0.88;;;;;;;15.50;86.04;101292.63;6205507;28;20046;-89
2022/08/31 02:22:14;;;;;;;1.70;0.90;;;;;;;15.45;86.41;101292.19;6214942;28;20364;-89
2022/08/31 02:25:17;;;;;;;1.17;0.80;;;;;;;15.42;87.92;101295.09;6214101;28;20811;-89
2022/08/31 02:28:20;;;;;;;1.65;0.80;;;;;;;15.44;87.90;101303.59;6213948;28;20042;-88
2022/08/31 02:31:22;;;;;;;1.02;0.80;;;;;;;15.49;87.82;101297.03;6222346;28;20398;-89
2022/08/31 02:34:30;;;;;;;0.73;0.70;;;;;;;15.57;86.75;101296.34;6211054;28;20049;-89
2022/08/31 02:37:31;;;;;;;0.98;0.68;;;;;;;15.62;87.45;101295.94;6192185;28;20267;-88
2022/08/31 02:40:37;;;;;;;1.65;0.70;;;;;;;15.68;85.70;101295.41;6221144;28;20069;-91
2022/08/31 02:43:42;;;;;;;1.20;0.80;;;;;;;15.75;87.47;101306.16;6212410;28;20551;-89
2022/08/31 02:46:44;;;;;;;2.03;0.90;;;;;;;15.76;85.76;101302.59;6196375;28;20046;-89
2022/08/31 02:50:12;;;;;;;0.70;0.70;;;;;;;15.79;86.45;101304.94;6212401;28;20046;-89
2022/08/31 02:53:16;;;;;;;0.77;0.70;;;;;;;15.80;84.20;101309.19;6222090;28;20396;-88
2022/08/31 02:56:18;;;;;;;0.90;0.70;;;;;;;15.75;86.63;101301.78;6207250;28;20054;-89
2022/08/31 02:59:20;;;;;;;2.67;0.90;;;;;;;15.70;87.13;101298.72;6181848;28;20120;-89
2022/08/31 03:02:23;;;;;;;1.27;0.73;;;;;;;15.62;88.32;101301.97;6184275;28;20050;-88
2022/08/31 03:05:32;;;;;;;0.88;0.80;;;;;;;15.47;87.41;101293.72;6203368;28;20038;-89
2022/08/31 03:08:34;;;;;;;1.70;0.80;;;;;;;15.36;88.38;101287.81;6211269;28;20133;-89
2022/08/31 03:11:36;;;;;;;1.63;0.85;;;;;;;15.23;89.29;101288.06;6218130;28;20130;-89
2022/08/31 03:14:38;;;;;;;2.92;0.70;;;;;;;15.10;89.91;101284.81;6210524;28;20049;-89
2022/08/31 03:17:41;;;;;;;1.50;0.90;;;;;;;14.97;91.21;101285.06;6215184;28;20233;-89
2022/08/31 03:20:44;;;;;;;1.30;0.90;;;;;;;14.85;91.68;101282.53;6225846;28;20167;-89
2022/08/31 03:23:46;;;;;;;1.55;1.00;;;;;;;14.76;92.82;101280.72;6205344;28;20042;-89
2022/08/31 03:26:48;;;;;;;1.38;0.90;;;;;;;14.67;94.17;101281.50;6209690;28;20061;-89
2022/08/31 03:29:51;;;;;;;0.80;0.70;;;;;;;14.64;94.82;101271.34;6218781;28;20046;-89
2022/08/31 03:32:58;;;;;;;1.77;0.80;;;;;;;14.62;94.77;101279.25;6206008;28;20050;-89
2022/08/31 03:36:04;;;;;;;0.75;0.63;;;;;;;14.55;94.55;101275.53;6203491;28;20229;-89
2022/08/31 03:39:06;;;;;;;2.25;0.85;;;;;;;14.48;95.03;101278.75;6229052;28;20238;-89
2022/08/31 03:42:08;;;;;;;2.70;1.05;;;;;;;14.39;95.73;101278.56;6208136;28;20512;-89
2022/08/31 03:45:12;;;;;;;2.28;0.77;;;;;;;14.28;95.72;101273.41;6204170;28;20065;-89
2022/08/31 03:48:15;;;;;;;2.30;0.80;;;;;;;14.20;96.38;101281.84;6221144;28;20057;-89
2022/08/31 03:51:19;;;;;;;1.70;0.90;;;;;;;14.13;97.30;101285.09;6214527;28;20057;-89
2022/08/31 03:54:21;;;;;;;1.63;0.75;;;;;;;14.06;96.98;101286.53;6204018;28;20650;-89
2022/08/31 03:57:23;;;;;;;1.40;0.90;;;;;;;14.00;98.01;101286.06;6210675;28;20193;-89
2022/08/31 04:00:25;;;;;;;2.53;0.80;;;;;;;13.96;99.39;101282.09;6244236;28;20057;-89
2022/08/31 04:03:35;;;;;;;1.10;0.80;;;;;;;13.90;98.37;101279.16;6195685;28;20042;-89
2022/08/31 04:07:05;;;;;;;1.38;0.80;;;;;;;13.89;99.29;101280.13;6175614;28;20062;-89
2022/08/31 04:10:27;;;;;;;1.58;0.95;;;;;;;13.92;100.00;101291.09;6164312;28;20517;-89
2022/08/31 04:13:48;;;;;;;2.60;0.93;;;;;;;13.93;99.64;101292.72;6163333;28;20497;-89
2022/08/31 04:17:10;;;;;;;1.58;1.10;;;;;;;13.91;99.06;101302.47;6162918;28;20078;-88
2022/08/31 04:20:18;;;;;;;2.08;1.20;;;;;;;13.91;99.13;101307.66;6165529;28;20150;-89
2022/08/31 04:23:30;;;;;;;2.67;0.90;;;;;;;13.99;98.99;101309.66;6167261;28;20035;-89
2022/08/31 04:26:36;;;;;;;2.75;0.90;;;;;;;14.09;98.60;101307.94;6157324;28;20051;-88
2022/08/31 04:29:39;;;;;;;4.38;0.90;;;;;;;14.18;98.01;101306.34;6152298;28;20162;-90
2022/08/31 04:32:45;;;;;;;1.27;0.85;;;;;;;14.22;98.01;101311.19;6171384;28;20043;-89
2022/08/31 04:35:47;;;;;;;2.83;1.17;;;;;;;14.29;97.76;101316.75;6151272;28;20574;-88
2022/08/31 04:38:51;;;;;;;5.03;1.10;;;;;;;14.38;97.70;101320.34;6148744;28;20116;-89
2022/08/31 04:41:54;;;;;;;1.20;0.90;;;;;;;14.48;97.74;101318.63;6165020;28;20051;-89
2022/08/31 04:44:57;;;;;;;1.48;0.95;;;;;;;14.57;97.27;101324.91;6223157;28;20099;-89
2022/08/31 04:47:59;;;;;;;1.45;0.70;;;;;;;14.63;95.17;101327.84;6206769;28;20084;-89
2022/08/31 04:51:03;;;;;;;2.05;1.00;;;;;;;14.71;95.98;101332.41;6226716;28;20400;-89
2022/08/31 04:54:08;;;;;;;2.33;0.90;;;;;;;14.75;96.17;101328.56;6211930;28;20046;-89
2022/08/31 04:57:10;;;;;;;2.53;1.10;;;;;;;14.85;95.26;101339.88;6224681;28;20045;-89
2022/08/31 05:00:13;;;;;;;1.75;0.93;;;;;;;14.93;95.52;101327.97;6221139;28;20047;-89
2022/08/31 05:03:49;;;;;;;4.68;0.90;;;;;;;14.97;93.89;101326.78;6205261;28;20221;-89
2022/08/31 05:06:53;;;;;;;1.10;0.80;;;;;;;15.04;93.30;101335.72;6186443;28;20562;-89
2022/08/31 05:09:55;;;;;;;1.20;0.90;;;;;;;15.12;92.08;101332.47;6187344;28;20493;-89
2022/08/31 05:12:57;;;;;;;2.13;1.17;;;;;;;15.15;90.41;101335.63;6192130;28;20054;-89
2022/08/31 05:16:00;;;;;;;1.60;0.95;;;;;;;15.18;91.69;101338.00;6202128;28;20046;-89
2022/08/31 05:19:02;;;;;;;1.08;0.70;;;;;;;15.24;90.68;101337.47;6182545;28;20163;-89
2022/08/31 05:22:04;;;;;;;2.20;0.82;;;;;;;15.34;89.68;101334.88;6203027;28;20050;-89
2022/08/31 05:25:09;;;;;;;1.75;1.00;;;;;;;15.43;89.79;101338.50;6186883;28;20141;-89
2022/08/31 05:28:11;;;;;;;2.03;0.98;;;;;;;15.48;91.08;101337.13;6205120;28;20045;-89
2022/08/31 05:31:13;;;;;;;5.57;1.30;;;;;;;15.54;89.14;101343.59;6206601;28;20046;-89
2022/08/31 05:34:20;;;;;;;2.42;1.17;;;;;;;15.54;88.17;101348.00;6170830;28;20077;-89
2022/08/31 05:37:22;;;;;;;1.30;1.00;;;;;;;15.46;89.46;101359.09;6190707;28;20289;-89
2022/08/31 05:40:26;;;;;;;1.50;0.90;;;;;;;15.44;90.03;101351.38;6192464;28;20050;-89
2022/08/31 05:43:29;;;;;;;2.40;1.10;;;;;;;15.45;89.95;101358.28;6187862;28;20066;-89
2022/08/31 05:46:32;;;;;;;2.88;1.10;;;;;;;15.47;90.08;101358.13;6203559;28;20042;-89
2022/08/31 05:49:35;;;;;;;1.63;0.90;;;;;;;15.51;90.14;101365.56;6212158;28;20555;-89
2022/08/31 05:52:37;;;;;;;1.92;0.98;;;;;;;15.61;90.41;101368.19;6197845;28;20073;-88
2022/08/31 05:55:39;;;;;;;2.00;0.90;;;;;;;15.70;90.44;101369.19;6212415;28;20042;-89
2022/08/31 05:58:43;;;;;;;2.40;1.10;;;;;;;15.77;89.14;101370.31;6207774;28;20080;-89
2022/08/31 06:01:47;;;;;;;2.95;0.90;;;;;;;15.84;89.82;101371.44;6218659;28;20455;-89
2022/08/31 06:04:56;;;;;;;2.42;0.90;;;;;;;15.93;88.25;101378.47;6206984;28;20412;-89
2022/08/31 06:07:59;;;;;;;3.33;1.20;;;;;;;15.99;89.00;101378.88;6197838;28;20053;-89
2022/08/31 06:11:02;;;;;;;1.35;0.90;;;;;;;16.05;88.02;101379.19;6208118;28;20571;-89
2022/08/31 06:14:05;;;;;;;3.88;1.05;;;;;;;16.17;88.87;101379.84;6190953;28;20516;-89
2022/08/31 06:17:07;;;;;;;1.77;1.00;;;;;;;16.33;88.91;101390.59;6224837;28;20041;-89
2022/08/31 06:20:10;;;;;;;6.82;1.23;;;;;;;16.43;87.89;101385.38;6207170;28;20184;-89
2022/08/31 06:23:19;;;;;;;3.50;1.38;;;;;;;16.48;86.02;101388.41;6228505;28;20045;-89
2022/08/31 06:26:26;;;;;;;3.22;1.08;;;;;;;16.60;86.93;101383.03;6197843;28;20053;-89
2022/08/31 06:29:31;;;;;;;3.13;1.23;;;;;;;16.66;85.31;101392.91;6216788;28;20050;-88
2022/08/31 06:32:35;;;;;;;4.47;1.33;;;;;;;16.81;86.04;101394.16;6206284;28;20437;-89
2022/08/31 06:35:39;;;;;;;2.70;1.15;;;;;;;17.00;84.92;101399.34;6219527;28;20551;-89
2022/08/31 06:39:11;;;;;;;2.03;0.95;;;;;;;17.26;82.60;101395.28;6207556;28;20142;-89
2022/08/31 06:42:21;;;;;;;4.28;1.20;;;;;;;17.41;80.81;101393.84;6199881;28;20049;-89
2022/08/31 06:45:42;;;;;;;3.10;1.00;;;;;;;17.48;81.63;101399.34;6210336;28;20057;-89
2022/08/31 06:49:04;;;;;;;1.52;1.00;;;;;;;17.50;81.19;101395.59;6223408;28;20045;-89
2022/08/31 06:52:09;;;;;;;3.10;0.93;;;;;;;17.49;80.79;101393.13;6205994;28;20057;-89
2022/08/31 06:55:12;;;;;;;1.60;0.80;;;;;;;17.40;80.70;101395.63;6199790;28;20144;-89
2022/08/31 06:58:23;;;;;;;2.97;0.93;;;;;;;17.29;81.91;101401.06;6196611;28;20084;-89
2022/08/31 07:01:43;;;;;;;2.22;1.27;;;;;;;17.18;83.85;101396.00;6214497;28;20057;-89
2022/08/31 07:04:53;;;;;;;1.60;1.10;;;;;;;17.07;83.76;101396.16;6215040;28;20054;-88
2022/08/31 07:07:55;;;;;;;1.95;1.10;;;;;;;16.98;85.47;101396.06;6206901;28;20400;-89
2022/08/31 07:10:57;;;;;;;1.67;0.82;;;;;;;16.90;85.41;101405.59;6199722;28;20415;-89
2022/08/31 07:13:59;;;;;;;2.80;1.17;;;;;;;16.81;85.81;101409.84;6211962;28;20100;-89
2022/08/31 07:17:03;;;;;;;2.78;1.38;;;;;;;16.75;87.47;101405.16;6207542;28;20578;-89
2022/08/31 07:20:07;;;;;;;6.32;1.20;;;;;;;16.70;88.97;101405.59;6212103;28;20046;-89
2022/08/31 07:23:09;;;;;;;3.45;1.17;;;;;;;16.67;87.94;101411.09;6211199;28;20053;-89
2022/08/31 07:26:31;;;;;;;2.20;1.00;;;;;;;16.70;86.82;101412.59;6205200;28;20107;-89
2022/08/31 07:29:39;;;;;;;2.90;1.00;;;;;;;16.73;86.88;101402.69;6212876;28;20042;-89
2022/08/31 07:32:44;;;;;;;2.35;1.50;;;;;;;16.77;86.27;101405.84;6218061;28;20270;-90
2022/08/31 07:35:50;;;;;;;2.75;1.10;;;;;;;16.85;87.42;101399.97;6203511;28;20035;-89
2022/08/31 07:42:27;;;;;;;4.20;1.30;;;;;;;17.13;86.85;101403.47;6207389;28;20508;-89
2022/08/31 07:45:29;;;;;;;1.50;0.90;;;;;;;17.23;86.22;101409.47;6197329;28;20573;-89
2022/08/31 07:48:38;;;;;;;2.55;1.40;;;;;;;17.36;85.56;101406.53;6201065;28;20607;-89
2022/08/31 07:51:59;;;;;;;1.80;1.00;;;;;;;17.49;84.00;101406.19;6194692;28;20058;-89
2022/08/31 07:55:34;;;;;;;3.53;0.90;;;;;;;17.59;83.17;101409.63;6207548;28;20156;-89
2022/08/31 07:58:41;;;;;;;2.60;1.17;;;;;;;17.67;82.80;101407.09;6202636;28;20285;-89
2022/08/31 08:01:54;;;;;;;1.35;1.00;;;;;;;17.75;82.55;101411.59;6191228;28;20506;-89
2022/08/31 08:04:59;;;;;;;3.78;1.35;;;;;;;17.83;81.93;101425.63;6187705;28;20038;-89
2022/08/31 08:08:21;;;;;;;2.63;1.30;;;;;;;17.91;80.72;101414.41;6193281;28;20049;-88
2022/08/31 08:11:56;;;;;;;1.98;1.02;;;;;;;18.02;80.26;101419.47;6151886;28;20051;-89
2022/08/31 08:15:20;;;;;;;2.08;1.00;;;;;;;18.10;79.44;101423.97;6158000;28;20509;-89
2022/08/31 08:18:41;;;;;;;4.30;1.27;;;;;;;18.13;79.33;101428.06;6156787;28;20058;-89
2022/08/31 08:21:44;;;;;;;1.75;1.00;;;;;;;18.12;78.96;101424.63;6157314;28;20097;-89
2022/08/31 08:24:47;;;;;;;2.83;1.02;;;;;;;18.16;78.99;101433.00;6142527;28;20660;-89
2022/08/31 08:28:03;;;;;;;0.98;0.82;;;;;;;18.28;78.89;101426.59;6156569;28;20390;-89
2022/08/31 08:31:27;;;;;;;1.75;1.00;;;;;;;18.48;77.07;101432.50;6143486;28;20050;-89
2022/08/31 08:34:29;;;;;;;2.13;1.10;;;;;;;18.63;77.55;101431.00;6146183;28;20074;-89
2022/08/31 08:37:38;;;;;;;3.25;1.13;;;;;;;18.75;76.26;101434.19;6129082;28;20509;-89
2022/08/31 08:41:03;;;;;;;4.82;0.90;;;;;;;18.83;75.27;101428.22;6132461;28;20055;-89
2022/08/31 08:44:09;;;;;;;3.58;1.10;;;;;;;18.89;75.67;101432.88;6144984;28;20117;-89
2022/08/31 08:47:22;;;;;;;4.22;1.10;;;;;;;18.92;76.24;101441.25;6143857;28;20377;-89
2022/08/31 08:50:30;;;;;;;2.83;1.20;;;;;;;18.99;76.09;101440.63;6213146;28;20510;-89
2022/08/31 08:53:32;;;;;;;1.98;1.30;;;;;;;19.07;75.79;101435.44;6195394;28;20046;-89
2022/08/31 08:56:56;;;;;;;3.45;1.08;;;;;;;19.12;75.22;101431.38;6195997;28;20053;-89
2022/08/31 09:00:06;;;;;;;2.42;1.13;;;;;;;19.26;74.69;101437.03;6213123;28;20416;-89
2022/08/31 09:03:29;;;;;;;2.10;1.08;;;;;;;19.17;73.36;101428.28;6196378;28;20799;-89
2022/08/31 09:06:53;;;;;;;1.00;0.77;;;;;;;19.09;74.83;101429.06;6192997;28;20054;-89
2022/08/31 09:10:15;;;;;;;4.75;0.93;;;;;;;19.01;74.91;101434.25;6210961;28;20127;-89
2022/08/31 09:13:47;;;;;;;2.88;1.27;;;;;;;18.98;75.04;101436.34;6201669;28;20095;-89
2022/08/31 09:17:15;;;;;;;2.70;1.10;;;;;;;19.00;75.25;101440.47;6205617;28;20050;-89
2022/08/31 09:20:17;;;;;;;4.90;1.00;;;;;;;18.98;75.19;101438.97;6196294;28;20385;-89
2022/08/31 09:23:20;;;;;;;3.10;1.02;;;;;;;18.99;74.90;101440.63;6195442;28;20064;-89
2022/08/31 09:26:24;;;;;;;5.07;1.23;;;;;;;19.02;75.73;101441.13;6190439;28;20104;-89
2022/08/31 09:29:42;;;;;;;6.47;1.33;;;;;;;19.10;75.03;101433.31;6191903;28;20046;-89
2022/08/31 09:32:55;;;;;;;2.17;0.82;;;;;;;19.21;75.21;101437.50;6198790;28;20060;-89
2022/08/31 09:36:26;;;;;;;3.33;1.00;;;;;;;19.32;74.83;101436.41;6191780;28;20045;-89
2022/08/31 09:39:29;;;;;;;;;;;;;;;19.40;74.07;101431.19;6189448;28;20624;-89
2022/08/31 09:42:38;;;;;;;2.80;1.00;;;;;;;19.44;73.95;101435.16;6197873;28;19926;-89
2022/08/31 09:46:06;;;;;;;4.32;1.13;;;;;;;19.51;73.39;101430.91;6195919;28;20077;-89
2022/08/31 09:49:18;;;;;;;3.70;0.90;;;;;;;19.59;73.01;101436.19;6188090;28;20360;-89
2022/08/31 09:55:49;;;;;;;5.00;1.10;;;;;;;19.64;72.34;101425.22;6193930;28;20046;-89
2022/08/31 09:58:56;;;;;;;3.55;0.90;;;;;;;19.86;70.84;101430.91;6194938;28;20512;-89
2022/08/31 10:01:59;;;;;;;4.18;1.30;;;;;;;19.96;68.34;101434.22;6210531;28;20068;-90
2022/08/31 10:05:28;;;;;;;2.97;1.05;;;;;;;20.09;66.55;101431.13;6203393;28;20571;-89
2022/08/31 10:08:55;;;;;;;5.20;1.30;;;;;;;20.27;67.68;101434.44;6192033;28;20050;-89
2022/08/31 10:12:03;;;;;;;1.10;0.98;;;;;;;20.42;67.24;101430.19;6200941;28;20117;-90
2022/08/31 10:15:09;;;;;;;4.90;1.23;;;;;;;20.57;66.59;101432.19;6207181;28;20048;-89
2022/08/31 10:18:26;;;;;;;5.00;1.15;;;;;;;20.68;63.08;101429.22;6188173;28;20073;-90
2022/08/31 10:22:20;;;;;;;1.77;0.80;;;;;;;20.92;60.10;101422.28;6199227;28;20439;-90
2022/08/31 10:25:51;;;;;;;1.38;0.80;;;;;;;21.12;59.75;101417.47;6149471;28;20042;-90
2022/08/31 10:28:58;;;;;;;2.60;0.88;;;;;;;21.28;55.31;101422.72;6155617;28;20055;-90
2022/08/31 10:32:08;;;;;;;3.55;0.80;;;;;;;21.32;55.09;101420.56;6154143;28;20046;-91
2022/08/31 10:35:18;;;;;;;5.00;0.93;;;;;;;21.34;55.60;101419.41;6143076;28;20101;-89
2022/08/31 10:38:42;;;;;;;1.30;0.85;;;;;;;21.38;55.76;101411.97;6153447;28;20532;-90
2022/08/31 10:41:48;;;;;;;1.98;1.00;;;;;;;21.52;51.94;101406.03;6158077;28;20094;-91
2022/08/31 10:45:03;;;;;;;2.22;0.88;;;;;;;21.67;52.62;101409.56;6160898;28;20059;-90
2022/08/31 10:48:05;;;;;;;1.40;0.80;;;;;;;21.72;50.84;101404.59;6160876;28;20438;-91
2022/08/31 10:51:21;;;;;;;2.03;1.08;;;;;;;21.68;51.61;101413.03;6156881;28;20047;-90
2022/08/31 10:54:55;;;;;;;1.48;0.95;;;;;;;21.78;51.54;101413.63;6158144;28;20192;-90
2022/08/31 10:58:35;;;;;;;2.05;0.95;;;;;;;21.75;51.25;101400.81;6208671;28;20049;-90
2022/08/31 11:01:47;;;;;;;2.03;1.13;;;;;;;21.73;50.50;101402.78;6218458;28;20788;-90
2022/08/31 11:05:09;;;;;;;2.00;0.95;;;;;;;21.77;51.11;101398.81;6211905;28;20191;-91
2022/08/31 11:08:30;;;;;;;1.58;0.70;;;;;;;21.85;50.19;101390.03;6210932;28;20046;-90
2022/08/31 11:11:40;;;;;;;;;;;;;;;21.85;50.43;101390.03;6217074;28;20054;-90
2022/08/31 11:15:21;;;;;;;2.70;0.85;;;;;;;21.78;51.13;101389.91;6209385;28;19922;-90
2022/08/31 11:18:58;;;;;;;2.72;0.70;;;;;;;21.80;52.19;101390.56;6218590;28;20041;-90
2022/08/31 11:22:33;;;;;;;1.00;0.90;;;;;;;21.87;52.63;101382.78;6217777;28;20057;-90
2022/08/31 11:26:02;;;;;;;4.88;1.00;;;;;;;21.96;51.62;101379.06;6218232;28;20045;-90
2022/08/31 11:29:12;;;;;;;10.40;1.10;;;;;;;22.08;49.94;101377.69;6212653;28;20038;-91
2022/08/31 11:32:20;;;;;;;4.57;1.10;;;;;;;22.14;48.78;101378.81;6216143;28;20120;-90
2022/08/31 11:35:59;;;;;;;3.15;0.70;;;;;;;22.32;48.31;101378.53;6213443;28;20045;-90
2022/08/31 11:39:06;;;;;;;2.50;0.70;;;;;;;22.65;46.01;101368.50;6197810;28;20161;-90
2022/08/31 11:42:17;;;;;;;6.47;0.90;;;;;;;22.83;45.89;101362.03;6192334;28;20488;-90
2022/08/31 11:45:31;;;;;;;2.60;0.73;;;;;;;23.07;46.22;101358.34;6198731;28;20054;-90
2022/08/31 11:48:53;;;;;;;1.20;0.75;;;;;;;23.23;46.64;101360.81;6231481;28;20048;-91
2022/08/31 11:51:56;;;;;;;1.02;0.70;;;;;;;23.34;46.39;101354.22;6207380;28;20181;-91
2022/08/31 11:55:19;;;;;;;2.08;0.90;;;;;;;23.35;45.59;101345.28;6207932;28;20053;-91
2022/08/31 11:58:32;;;;;;;1.02;0.60;;;;;;;23.51;44.29;101341.63;6204473;28;20046;-91
2022/08/31 12:01:35;;;;;;;4.05;0.75;;;;;;;23.74;44.07;101352.84;6200632;28;20053;-90
2022/08/31 12:04:57;;;;;;;1.77;0.73;;;;;;;23.83;43.39;101346.44;6203354;28;20050;-91
2022/08/31 12:08:03;;;;;;;1.13;0.80;;;;;;;24.01;44.06;101339.91;6209091;28;20050;-92
2022/08/31 12:11:16;;;;;;;0.70;0.50;;;;;;;24.17;40.21;101342.25;6207369;28;20034;-91
2022/08/31 12:14:40;;;;;;;1.55;0.93;;;;;;;24.15;41.52;101339.00;6203801;28;20046;-91
2022/08/31 12:18:25;;;;;;;0.93;0.68;;;;;;;24.47;39.34;101345.59;6221289;28;20184;-91
2022/08/31 12:25:35;;;;;;;0.75;0.55;;;;;;;24.81;38.65;101335.22;6207701;28;20058;-91
2022/08/31 12:29:14;;;;;;;1.75;0.73;;;;;;;24.84;38.80;101326.88;6204101;28;20857;-91
2022/08/31 12:32:35;;;;;;;1.23;0.70;;;;;;;24.92;38.66;101324.88;6219151;28;20062;-91
2022/08/31 12:35:37;;;;;;;1.10;0.70;;;;;;;25.00;38.78;101325.75;6214396;28;20571;-92
2022/08/31 12:38:39;;;;;;;2.35;0.82;;;;;;;25.03;38.33;101323.50;6208202;28;20142;-92
2022/08/31 12:41:50;;;;;;;1.77;0.77;;;;;;;25.19;38.15;101317.06;6195595;28;20428;-92
2022/08/31 12:44:53;;;;;;;2.72;0.73;;;;;;;25.33;37.57;101318.75;6198783;28;20411;-92
2022/08/31 12:48:14;;;;;;;1.35;0.70;;;;;;;25.49;38.02;101320.25;6208412;28;20128;-92
2022/08/31 12:51:34;;;;;;;0.77;0.60;;;;;;;25.75;39.26;101318.66;6211586;28;20046;-91
2022/08/31 12:54:48;;;;;;;3.58;0.90;;;;;;;26.02;36.94;101319.50;6209889;28;20381;-91
2022/08/31 12:58:08;;;;;;;0.52;0.52;;;;;;;26.09;36.38;101311.56;6202935;28;20038;-93
2022/08/31 13:01:14;;;;;;;1.05;0.60;;;;;;;26.28;37.45;101308.06;6208074;28;20046;-92
2022/08/31 13:04:18;;;;;;;0.70;0.60;;;;;;;26.40;35.66;101301.09;6215719;28;20139;-92
2022/08/31 13:07:29;;;;;;;1.02;0.80;;;;;;;26.62;36.04;101300.88;6228112;28;20045;-92
2022/08/31 13:10:35;;;;;;;2.70;0.60;;;;;;;26.93;34.75;101302.00;6214852;28;20046;-92
2022/08/31 13:13:36;;;;;;;1.52;0.70;;;;;;;27.00;34.13;101311.56;6211895;28;20099;-92
2022/08/31 13:16:53;;;;;;;2.88;0.80;;;;;;;27.13;34.77;101308.06;6203581;28;20049;-91
2022/08/31 13:20:01;;;;;;;1.45;0.90;;;;;;;27.20;34.47;101292.09;6222076;28;20037;-91
2022/08/31 13:23:09;;;;;;;1.45;0.80;;;;;;;27.09;34.91;101298.06;6218024;28;20037;-92
2022/08/31 13:26:18;;;;;;;1.00;0.70;;;;;;;27.05;34.08;101290.47;6212337;28;20046;-93
2022/08/31 13:29:22;;;;;;;2.63;1.00;;;;;;;27.07;34.68;101292.94;6209924;28;20045;-91
2022/08/31 13:32:32;;;;;;;0.98;0.68;;;;;;;27.08;35.11;101289.28;6203561;28;20041;-92
2022/08/31 13:35:35;;;;;;;3.10;0.88;;;;;;;27.09;34.57;101284.78;6212353;28;20042;-93
2022/08/31 13:38:49;;;;;;;1.98;0.90;;;;;;;27.17;34.54;101274.69;6207259;28;20045;-91
2022/08/31 13:42:19;;;;;;;0.60;0.60;;;;;;;27.42;33.86;101282.75;6210196;28;20049;-91
2022/08/31 13:45:26;;;;;;;1.25;0.70;;;;;;;27.61;34.03;101278.34;6211362;28;20042;-92
2022/08/31 13:48:29;;;;;;;0.88;0.57;;;;;;;27.64;34.49;101277.91;6230960;28;20119;-92
2022/08/31 13:51:37;;;;;;;3.33;0.85;;;;;;;27.73;35.14;101274.97;6198131;28;20467;-92
2022/08/31 13:54:39;;;;;;;1.02;0.70;;;;;;;27.88;34.44;101278.16;6225008;28;20038;-92
2022/08/31 13:57:58;;;;;;;2.92;0.82;;;;;;;28.05;34.08;101275.75;6202482;28;20046;-92
2022/08/31 14:01:24;;;;;;;1.67;0.80;;;;;;;28.24;34.32;101276.59;6209825;28;20041;-92
2022/08/31 14:04:42;;;;;;;3.00;0.73;;;;;;;28.45;33.15;101273.56;6210492;28;20042;-92
2022/08/31 14:07:45;;;;;;;2.13;0.70;;;;;;;28.38;32.85;101270.13;6203358;28;21868;-92
2022/08/31 14:10:48;;;;;;;1.13;0.80;;;;;;;28.39;32.99;101265.59;6199640;28;20095;-92
2022/08/31 14:13:51;;;;;;;1.55;0.70;;;;;;;28.41;35.10;101268.84;6208689;28;20053;-92
2022/08/31 14:17:02;;;;;;;1.40;0.65;;;;;;;28.51;34.60;101270.00;6188385;28;20057;-92
2022/08/31 14:20:40;;;;;;;1.23;0.80;;;;;;;28.53;33.36;101264.44;6194738;28;20155;-91
2022/08/31 14:24:05;;;;;;;2.53;0.68;;;;;;;28.33;35.31;101254.00;6197824;28;20077;-92
2022/08/31 14:27:09;;;;;;;1.00;0.80;;;;;;;28.29;35.35;101256.25;6214211;28;20030;-93
2022/08/31 14:30:13;;;;;;;2.47;0.70;;;;;;;28.19;34.80;101252.50;6202961;28;20148;-93
2022/08/31 14:33:15;;;;;;;1.20;0.75;;;;;;;27.80;35.57;101255.28;6199269;28;20038;-93
2022/08/31 14:36:18;;;;;;;0.80;0.70;;;;;;;27.30;34.83;101252.56;6200334;28;20037;-93
2022/08/31 14:39:20;;;;;;;2.70;0.88;;;;;;;26.79;35.98;101256.91;6198576;28;20049;-93
2022/08/31 14:42:27;;;;;;;1.38;0.70;;;;;;;26.34;36.59;101251.50;6208822;28;20495;-93
2022/08/31 14:45:29;;;;;;;2.45;0.90;;;;;;;26.15;38.07;101252.34;6196782;28;20042;-92
2022/08/31 14:48:32;;;;;;;1.67;0.70;;;;;;;26.39;37.98;101242.91;6201331;28;20123;-92
2022/08/31 14:51:37;;;;;;;2.92;1.00;;;;;;;26.60;36.98;101247.16;6211555;28;20321;-92
2022/08/31 14:54:39;;;;;;;1.38;0.70;;;;;;;26.89;36.12;101243.16;6202987;28;20045;-92
2022/08/31 14:57:43;;;;;;;2.03;0.68;;;;;;;27.16;36.05;101238.53;6199145;28;20042;-92
2022/08/31 15:00:46;;;;;;;1.35;0.65;;;;;;;27.32;34.95;101229.22;6200530;28;20135;-92